createdAt,value
2022-07-25T00:09:23.188Z,61.97
2022-07-25T00:39:25.920Z,63.79
2022-07-25T01:09:29.626Z,58.97
2022-07-25T01:39:32.402Z,58.22
2022-07-25T02:09:35.619Z,57.17
2022-07-25T02:39:38.328Z,61.64
2022-07-25T03:09:41.956Z,55.57
2022-07-25T03:39:44.803Z,60.00
2022-07-25T04:09:47.990Z,61.35
2022-07-25T04:39:50.977Z,59.44
2022-07-25T05:09:54.243Z,66.15
2022-07-25T05:39:57.183Z,64.30
2022-07-25T06:10:00.427Z,62.46
2022-07-25T06:40:03.702Z,61.44
2022-07-25T07:10:07.024Z,61.26
2022-07-25T07:40:17.196Z,57.01
2022-07-25T08:10:21.859Z,53.11
2022-07-25T08:40:25.051Z,45.80
2022-07-25T09:10:36.278Z,38.65
2022-07-25T09:40:39.573Z,37.89
2022-07-25T10:10:43.138Z,34.51
2022-07-25T10:40:46.554Z,33.22
2022-07-25T11:10:50.129Z,31.29
2022-07-25T11:40:53.076Z,29.59
2022-07-25T12:10:57.176Z,27.94
2022-07-25T12:40:59.948Z,27.96
2022-07-25T13:11:03.556Z,26.74
2022-07-25T13:41:06.284Z,26.31
2022-07-25T14:11:09.870Z,25.55
2022-07-25T14:41:13.384Z,25.31
2022-07-25T15:11:16.726Z,25.96
2022-07-25T15:41:19.801Z,25.44
2022-07-25T16:11:23.137Z,26.55
2022-07-25T16:41:26.306Z,26.61
2022-07-25T17:11:29.543Z,27.92
2022-07-25T17:41:32.724Z,29.11
2022-07-25T18:11:36.863Z,30.27
2022-07-25T18:41:39.808Z,31.62
2022-07-25T19:11:43.286Z,33.21
2022-07-25T19:41:47.265Z,35.04
2022-07-25T20:11:50.499Z,36.28
2022-07-25T20:41:53.852Z,37.43
2022-07-25T21:11:57.302Z,38.61
2022-07-25T21:42:00.556Z,42.37
2022-07-25T22:12:04.028Z,41.94
2022-07-25T22:42:07.249Z,42.48
2022-07-25T23:12:10.061Z,44.31
2022-07-25T23:42:13.181Z,44.27
